createdAt,value
2018-04-19T00:00:00.301Z,11.42
2018-04-19T00:02:28.602Z,11.52
2018-04-19T00:04:56.882Z,11.52
2018-04-19T00:07:25.235Z,11.56
2018-04-19T00:09:53.640Z,11.55
2018-04-19T00:12:22.010Z,11.50
2018-04-19T00:14:50.398Z,11.53
2018-04-19T00:17:18.688Z,11.47
2018-04-19T00:19:47.029Z,11.45
2018-04-19T00:22:15.382Z,11.41
2018-04-19T00:24:43.692Z,11.44
2018-04-19T00:27:12.012Z,11.22
2018-04-19T00:29:40.294Z,11.21
2018-04-19T00:32:08.577Z,11.39
2018-04-19T00:34:37.023Z,11.29
2018-04-19T00:37:05.410Z,11.10
2018-04-19T00:39:33.733Z,11.05
2018-04-19T00:42:02.004Z,11.13
2018-04-19T00:44:30.258Z,11.21
2018-04-19T00:46:58.630Z,11.15
2018-04-19T00:49:26.911Z,11.14
2018-04-19T00:51:55.195Z,11.03
2018-04-19T00:54:23.475Z,11.08
2018-04-19T00:56:51.763Z,11.15
2018-04-19T00:59:20.216Z,11.09
2018-04-19T01:01:48.501Z,11.09
2018-04-19T01:04:16.778Z,11.08
2018-04-19T01:06:45.065Z,11.03
2018-04-19T01:09:13.335Z,11.11
2018-04-19T01:11:41.820Z,10.97
2018-04-19T01:14:10.293Z,10.97
2018-04-19T01:16:38.769Z,10.92
2018-04-19T01:19:07.015Z,10.87
2018-04-19T01:21:35.316Z,10.80
2018-04-19T01:24:03.620Z,10.89
2018-04-19T01:26:31.978Z,10.87
2018-04-19T01:29:00.250Z,10.82
2018-04-19T01:31:28.543Z,10.71
2018-04-19T01:33:56.815Z,10.71
2018-04-19T01:36:26.552Z,10.84
2018-04-19T01:38:54.866Z,10.74
2018-04-19T01:41:23.155Z,10.66
2018-04-19T01:43:51.467Z,10.59
2018-04-19T01:46:19.779Z,10.64
2018-04-19T01:48:48.035Z,10.63
2018-04-19T01:51:16.471Z,10.56
2018-04-19T01:53:44.721Z,10.54
2018-04-19T01:56:13.023Z,10.63
2018-04-19T01:58:41.271Z,10.58
2018-04-19T02:01:09.591Z,10.40
2018-04-19T02:03:37.834Z,10.44
2018-04-19T02:06:06.130Z,10.65
2018-04-19T02:08:34.743Z,10.62
2018-04-19T02:11:03.090Z,10.45
2018-04-19T02:13:31.569Z,10.41
2018-04-19T02:15:59.867Z,10.34
2018-04-19T02:18:28.189Z,10.54
2018-04-19T02:20:56.562Z,10.50
2018-04-19T02:23:24.835Z,10.31
2018-04-19T02:25:53.222Z,10.22
2018-04-19T02:28:21.533Z,10.17
2018-04-19T02:30:49.823Z,10.15
2018-04-19T02:33:18.099Z,10.24
2018-04-19T02:35:46.409Z,10.16
2018-04-19T02:38:14.728Z,10.22
2018-04-19T02:40:43.059Z,10.23
2018-04-19T02:43:11.386Z,10.24
2018-04-19T02:45:39.702Z,10.05
2018-04-19T02:48:07.999Z,10.04
2018-04-19T02:50:36.363Z,9.92
2018-04-19T02:53:04.648Z,9.88
2018-04-19T02:55:33.096Z,9.90
2018-04-19T02:58:01.504Z,10.04
2018-04-19T03:00:29.846Z,9.92
2018-04-19T03:02:58.127Z,9.90
2018-04-19T03:05:26.434Z,9.89
2018-04-19T03:07:54.727Z,9.91
2018-04-19T03:10:23.148Z,9.94
2018-04-19T03:12:51.427Z,9.95
2018-04-19T03:15:19.714Z,9.97
2018-04-19T03:17:47.983Z,9.89
2018-04-19T03:20:16.260Z,9.88
2018-04-19T03:22:44.705Z,9.76
2018-04-19T03:25:12.997Z,9.76
2018-04-19T03:27:41.286Z,9.73
2018-04-19T03:30:09.613Z,9.73
2018-04-19T03:32:37.874Z,9.68
2018-04-19T03:35:06.322Z,9.67
2018-04-19T03:37:34.577Z,9.55
2018-04-19T03:40:02.868Z,9.58
2018-04-19T03:42:31.359Z,9.73
2018-04-19T03:44:59.818Z,9.74
2018-04-19T03:47:28.125Z,9.72
2018-04-19T03:49:56.392Z,9.67
2018-04-19T03:52:24.953Z,9.62
2018-04-19T03:54:53.303Z,9.67
2018-04-19T03:57:21.671Z,9.57
2018-04-19T03:59:50.078Z,9.55
2018-04-19T04:08:09.859Z,9.59
2018-04-19T04:10:38.391Z,9.68
2018-04-19T04:13:07.287Z,9.63
2018-04-19T04:15:36.203Z,9.65
2018-04-19T04:20:18.499Z,9.61
2018-04-19T04:23:15.293Z,9.58
2018-04-19T04:25:44.097Z,9.71
2018-04-19T04:28:12.723Z,9.75
2018-04-19T04:30:41.271Z,9.75
2018-04-19T04:33:09.880Z,9.76
2018-04-19T04:35:38.806Z,9.75
2018-04-19T04:38:07.305Z,9.81
2018-04-19T04:40:35.916Z,9.77
2018-04-19T04:43:04.453Z,9.86
2018-04-19T04:45:33.165Z,9.92
2018-04-19T04:48:01.952Z,9.86
2018-04-19T04:50:30.780Z,9.93
2018-04-19T04:52:59.302Z,9.94
2018-04-19T04:55:27.843Z,9.86
2018-04-19T04:57:56.444Z,9.89
2018-04-19T05:00:24.979Z,9.97
2018-04-19T05:02:53.559Z,10.04
2018-04-19T05:05:22.212Z,10.29
2018-04-19T05:07:50.900Z,10.46
2018-04-19T05:10:19.463Z,10.48
2018-04-19T05:12:48.383Z,10.46
2018-04-19T05:15:17.160Z,10.57
2018-04-19T05:17:46.024Z,10.76
2018-04-19T05:20:14.727Z,10.94
2018-04-19T05:22:43.211Z,10.99
2018-04-19T05:25:11.728Z,11.12
2018-04-19T05:27:40.334Z,11.36
2018-04-19T05:30:09.120Z,11.67
2018-04-19T05:32:37.707Z,11.50
2018-04-19T05:35:06.256Z,11.51
2018-04-19T05:37:34.993Z,11.87
2018-04-19T05:40:03.755Z,12.07
2018-04-19T05:42:32.295Z,12.31
2018-04-19T05:45:01.167Z,12.36
2018-04-19T05:47:30.139Z,12.56
2018-04-19T05:49:58.732Z,12.68
2018-04-19T05:52:27.435Z,12.93
2018-04-19T05:54:56.134Z,13.15
2018-04-19T05:57:25.108Z,13.37
2018-04-19T05:59:53.680Z,13.40
2018-04-19T06:02:22.264Z,13.48
2018-04-19T06:04:50.759Z,13.69
2018-04-19T06:07:19.384Z,13.92
2018-04-19T06:09:48.055Z,14.13
2018-04-19T06:12:16.762Z,14.43
2018-04-19T06:14:45.340Z,14.70
2018-04-19T06:17:13.926Z,14.91
2018-04-19T06:19:42.525Z,15.10
2018-04-19T06:22:11.229Z,15.28
2018-04-19T06:24:39.728Z,15.56
2018-04-19T06:27:08.256Z,15.77
2018-04-19T06:29:38.117Z,15.94
2018-04-19T06:32:07.063Z,16.16
2018-04-19T06:34:35.671Z,16.33
2018-04-19T06:38:03.628Z,16.68
2018-04-19T06:40:32.259Z,16.97
2018-04-19T06:43:00.803Z,16.97
2018-04-19T06:45:29.413Z,17.12
2018-04-19T06:47:57.928Z,17.25
2018-04-19T06:50:27.583Z,17.37
2018-04-19T06:52:56.476Z,17.40
2018-04-19T06:55:25.380Z,17.49
2018-04-19T06:57:53.891Z,17.90
2018-04-19T07:00:22.447Z,18.11
2018-04-19T07:02:51.013Z,18.18
2018-04-19T07:05:19.924Z,18.26
2018-04-19T07:07:48.544Z,18.22
2018-04-19T07:10:17.142Z,18.50
2018-04-19T07:12:45.708Z,18.68
2018-04-19T07:15:14.285Z,18.43
2018-04-19T07:17:43.628Z,18.42
2018-04-19T07:20:12.175Z,18.49
2018-04-19T07:22:40.711Z,18.77
2018-04-19T07:25:09.381Z,18.92
2018-04-19T07:27:37.970Z,18.71
2018-04-19T07:30:06.628Z,18.87
2018-04-19T07:32:35.155Z,18.81
2018-04-19T07:35:03.776Z,19.03
2018-04-19T07:37:32.300Z,19.05
2018-04-19T07:40:00.888Z,19.26
2018-04-19T07:42:29.642Z,19.12
2018-04-19T07:44:58.256Z,19.27
2018-04-19T07:47:26.829Z,19.31
2018-04-19T07:49:55.467Z,19.23
2018-04-19T07:52:24.063Z,19.29
2018-04-19T07:54:59.642Z,19.38
2018-04-19T07:57:28.325Z,19.71
2018-04-19T07:59:56.869Z,19.76
2018-04-19T08:02:25.410Z,19.54
2018-04-19T08:04:53.972Z,19.72
2018-04-19T08:07:22.541Z,19.56
2018-04-19T08:09:51.084Z,19.48
2018-04-19T08:12:19.782Z,19.79
2018-04-19T08:14:48.304Z,19.77
2018-04-19T08:17:16.868Z,19.95
2018-04-19T08:19:45.620Z,20.07
2018-04-19T08:22:14.231Z,20.18
2018-04-19T08:24:42.789Z,20.18
2018-04-19T08:27:11.635Z,20.28
2018-04-19T08:29:40.441Z,20.41
2018-04-19T08:32:09.096Z,20.38
2018-04-19T08:34:37.723Z,20.28
2018-04-19T08:37:06.493Z,20.41
2018-04-19T08:39:34.995Z,20.69
2018-04-19T08:42:03.843Z,20.33
2018-04-19T08:44:32.506Z,20.56
2018-04-19T08:47:01.115Z,20.83
2018-04-19T08:49:29.655Z,20.80
2018-04-19T08:51:58.243Z,20.72
2018-04-19T08:54:26.804Z,20.86
2018-04-19T08:56:55.446Z,20.87
2018-04-19T08:59:24.219Z,21.12
2018-04-19T09:01:52.888Z,21.27
2018-04-19T09:04:21.458Z,21.49
2018-04-19T09:06:50.020Z,21.45
2018-04-19T09:09:18.535Z,21.44
2018-04-19T09:11:47.165Z,21.43
2018-04-19T09:14:15.822Z,21.46
2018-04-19T09:16:44.607Z,21.57
2018-04-19T09:19:13.263Z,21.48
2018-04-19T09:21:41.964Z,21.16
2018-04-19T09:24:10.536Z,21.66
2018-04-19T09:26:39.372Z,22.01
2018-04-19T09:29:08.091Z,22.20
2018-04-19T09:31:36.702Z,22.23
2018-04-19T09:34:05.213Z,22.10
2018-04-19T09:36:33.877Z,22.41
2018-04-19T09:39:02.505Z,21.51
2018-04-19T09:41:31.268Z,22.29
2018-04-19T09:43:59.801Z,21.85
2018-04-19T09:46:28.402Z,21.91
2018-04-19T09:48:56.907Z,22.29
2018-04-19T09:51:25.778Z,22.39
2018-04-19T09:53:54.385Z,22.66
2018-04-19T09:56:22.989Z,22.64
2018-04-19T09:59:00.363Z,22.65
2018-04-19T10:01:28.936Z,22.59
2018-04-19T10:03:59.596Z,22.91
2018-04-19T10:06:28.339Z,23.14
2018-04-19T10:08:57.021Z,22.68
2018-04-19T10:11:25.716Z,22.80
2018-04-19T10:13:54.359Z,23.15
2018-04-19T10:16:23.107Z,23.24
2018-04-19T10:18:51.639Z,23.45
2018-04-19T10:21:20.721Z,23.49
2018-04-19T10:23:49.441Z,23.59
2018-04-19T10:26:18.276Z,24.17
2018-04-19T10:28:46.905Z,23.60
2018-04-19T10:31:15.652Z,24.27
2018-04-19T10:33:44.346Z,23.76
2018-04-19T10:36:12.871Z,23.55
2018-04-19T10:38:41.657Z,23.65
2018-04-19T10:41:10.195Z,24.33
2018-04-19T10:43:38.687Z,24.73
2018-04-19T10:46:07.523Z,25.16
2018-04-19T10:48:36.070Z,25.26
2018-04-19T10:51:04.852Z,25.11
2018-04-19T10:53:33.387Z,25.70
2018-04-19T10:56:02.263Z,25.06
2018-04-19T10:58:30.927Z,26.34
2018-04-19T11:00:59.686Z,25.79
2018-04-19T11:03:28.559Z,26.58
2018-04-19T11:05:57.247Z,27.06
2018-04-19T11:08:25.881Z,26.89
2018-04-19T11:10:55.104Z,27.28
2018-04-19T11:13:23.842Z,27.25
2018-04-19T11:15:52.726Z,27.77
2018-04-19T11:18:21.328Z,27.48
2018-04-19T11:20:49.936Z,27.59
2018-04-19T11:23:18.432Z,27.71
2018-04-19T11:25:47.512Z,28.20
2018-04-19T11:28:16.338Z,27.86
2018-04-19T11:30:46.029Z,28.66
2018-04-19T11:33:14.543Z,28.58
2018-04-19T11:35:43.171Z,28.29
2018-04-19T11:38:11.830Z,29.19
2018-04-19T11:40:40.572Z,28.38
2018-04-19T11:43:09.091Z,29.10
2018-04-19T11:45:37.644Z,28.90
2018-04-19T11:48:06.160Z,29.41
2018-04-19T11:50:34.888Z,29.95
2018-04-19T11:53:03.747Z,29.49
2018-04-19T11:55:32.416Z,29.56
2018-04-19T11:58:01.185Z,29.85
2018-04-19T12:00:29.855Z,29.47
2018-04-19T12:02:58.693Z,30.03
2018-04-19T12:05:27.236Z,30.74
2018-04-19T12:07:55.873Z,29.88
2018-04-19T12:10:24.496Z,30.79
2018-04-19T12:12:53.155Z,30.98
2018-04-19T12:15:21.664Z,31.15
2018-04-19T12:17:50.158Z,31.04
2018-04-19T12:20:18.728Z,30.84
2018-04-19T12:22:47.950Z,31.63
2018-04-19T12:25:16.523Z,31.47
2018-04-19T12:27:45.040Z,31.93
2018-04-19T12:30:13.667Z,31.39
2018-04-19T12:32:42.236Z,32.05
2018-04-19T12:35:10.966Z,32.49
2018-04-19T12:37:39.597Z,32.27
2018-04-19T12:40:08.243Z,33.51
2018-04-19T12:42:36.863Z,33.18
2018-04-19T12:45:05.430Z,32.39
2018-04-19T12:47:34.247Z,33.20
2018-04-19T12:50:02.737Z,33.88
2018-04-19T12:52:31.384Z,33.44
2018-04-19T12:55:00.108Z,32.83
2018-04-19T12:57:28.788Z,33.16
2018-04-19T12:59:57.453Z,32.92
2018-04-19T13:02:26.287Z,33.56
2018-04-19T13:04:54.981Z,33.19
2018-04-19T13:07:23.740Z,32.61
2018-04-19T13:09:52.587Z,33.75
2018-04-19T13:12:21.148Z,32.85
2018-04-19T13:14:50.002Z,32.46
2018-04-19T13:17:18.576Z,33.09
2018-04-19T13:19:47.072Z,33.94
2018-04-19T13:22:15.659Z,33.53
2018-04-19T13:24:44.166Z,33.57
2018-04-19T13:27:12.866Z,33.92
2018-04-19T13:29:41.357Z,33.39
2018-04-19T13:32:09.888Z,33.69
2018-04-19T13:34:38.420Z,34.66
2018-04-19T13:37:07.495Z,34.26
2018-04-19T13:39:36.224Z,34.50
2018-04-19T13:42:05.150Z,34.20
2018-04-19T13:44:34.034Z,34.54
2018-04-19T13:47:02.633Z,34.13
2018-04-19T13:49:31.368Z,34.37
2018-04-19T13:52:00.041Z,34.17
2018-04-19T13:54:28.535Z,31.61
2018-04-19T13:56:57.122Z,33.40
2018-04-19T13:59:26.867Z,32.63
2018-04-19T14:01:55.452Z,34.95
2018-04-19T14:04:24.006Z,33.80
2018-04-19T14:06:52.675Z,33.03
2018-04-19T14:09:21.646Z,33.11
2018-04-19T14:11:51.858Z,33.51
2018-04-19T14:14:20.575Z,33.61
2018-04-19T14:16:49.227Z,34.57
2018-04-19T14:19:17.761Z,34.92
2018-04-19T14:21:46.327Z,35.26
2018-04-19T14:24:14.840Z,33.39
2018-04-19T14:26:43.440Z,32.74
2018-04-19T14:29:11.950Z,28.18
2018-04-19T14:31:40.522Z,28.36
2018-04-19T14:34:09.151Z,28.09
2018-04-19T14:36:37.690Z,27.44
2018-04-19T14:39:06.889Z,27.43
2018-04-19T14:41:35.472Z,27.51
2018-04-19T14:44:04.364Z,27.71
2018-04-19T14:46:32.925Z,27.28
2018-04-19T14:49:01.498Z,27.12
2018-04-19T14:51:30.034Z,27.38
2018-04-19T14:53:58.567Z,26.95
2018-04-19T14:56:27.091Z,26.81
2018-04-19T14:58:55.811Z,26.51
2018-04-19T15:01:24.523Z,26.31
2018-04-19T15:03:53.192Z,26.53
2018-04-19T15:06:21.807Z,26.49
2018-04-19T15:08:50.356Z,26.14
2018-04-19T15:11:18.979Z,26.08
2018-04-19T15:13:47.540Z,26.03
2018-04-19T15:16:16.045Z,26.05
2018-04-19T15:18:44.695Z,25.85
2018-04-19T15:21:13.225Z,26.00
2018-04-19T15:23:41.905Z,25.73
2018-04-19T15:26:10.560Z,26.01
2018-04-19T15:28:39.163Z,25.38
2018-04-19T15:31:07.924Z,25.72
2018-04-19T15:33:36.588Z,25.63
2018-04-19T15:36:05.343Z,25.43
2018-04-19T15:38:33.955Z,25.38
2018-04-19T15:41:02.476Z,25.59
2018-04-19T15:43:31.339Z,25.73
2018-04-19T15:46:00.059Z,25.17
2018-04-19T15:48:28.628Z,25.49
2018-04-19T15:50:57.314Z,25.16
2018-04-19T15:53:26.067Z,25.31
2018-04-19T15:55:54.813Z,25.27
2018-04-19T15:58:23.420Z,25.23
2018-04-19T16:00:52.153Z,25.14
2018-04-19T16:03:21.024Z,25.33
2018-04-19T16:05:49.567Z,24.81
2018-04-19T16:08:18.203Z,25.03
2018-04-19T16:10:46.724Z,24.85
2018-04-19T16:13:15.537Z,24.54
2018-04-19T16:15:44.137Z,24.78
2018-04-19T16:18:12.683Z,24.63
2018-04-19T16:20:41.200Z,24.89
2018-04-19T16:23:09.897Z,24.84
2018-04-19T16:25:38.716Z,24.70
2018-04-19T16:28:07.467Z,24.69
2018-04-19T16:30:35.995Z,24.80
2018-04-19T16:33:04.529Z,24.67
2018-04-19T16:35:33.220Z,24.80
2018-04-19T16:38:01.928Z,24.68
2018-04-19T16:40:31.735Z,24.69
2018-04-19T16:43:00.651Z,24.76
2018-04-19T16:45:36.334Z,24.87
2018-04-19T16:48:05.872Z,24.91
2018-04-19T16:50:34.728Z,24.80
2018-04-19T16:53:03.252Z,24.70
2018-04-19T16:55:31.795Z,24.49
2018-04-19T16:58:00.539Z,24.02
2018-04-19T17:00:29.141Z,23.71
2018-04-19T17:02:57.705Z,23.65
2018-04-19T17:05:26.596Z,23.72
2018-04-19T17:07:55.301Z,23.58
2018-04-19T17:10:23.981Z,23.52
2018-04-19T17:12:52.708Z,23.56
2018-04-19T17:15:21.250Z,23.48
2018-04-19T17:17:51.063Z,23.36
2018-04-19T17:20:19.584Z,23.14
2018-04-19T17:22:48.112Z,23.24
2018-04-19T17:25:16.688Z,23.34
2018-04-19T17:27:45.365Z,23.11
2018-04-19T17:30:14.069Z,23.08
2018-04-19T17:32:42.582Z,23.12
2018-04-19T17:35:11.139Z,22.84
2018-04-19T17:37:39.692Z,22.79
2018-04-19T17:40:08.389Z,22.63
2018-04-19T17:42:36.941Z,22.61
2018-04-19T17:45:05.475Z,22.51
2018-04-19T17:47:34.223Z,22.25
2018-04-19T17:50:02.936Z,22.18
2018-04-19T17:52:31.541Z,22.03
2018-04-19T17:55:00.013Z,21.80
2018-04-19T17:57:28.908Z,21.57
2018-04-19T17:59:57.535Z,21.30
2018-04-19T18:02:26.072Z,21.19
2018-04-19T18:04:54.831Z,20.96
2018-04-19T18:07:25.439Z,20.69
2018-04-19T18:09:54.439Z,20.68
2018-04-19T18:12:23.057Z,20.45
2018-04-19T18:14:51.572Z,20.40
2018-04-19T18:17:20.285Z,20.19
2018-04-19T18:19:49.197Z,19.99
2018-04-19T18:22:17.962Z,19.91
2018-04-19T18:24:46.555Z,19.88
2018-04-19T18:27:15.372Z,19.79
2018-04-19T18:29:43.880Z,19.72
2018-04-19T18:32:12.550Z,19.63
2018-04-19T18:34:41.441Z,19.51
2018-04-19T18:37:10.285Z,19.15
2018-04-19T18:39:39.963Z,19.17
2018-04-19T18:42:08.578Z,19.22
2018-04-19T18:44:37.167Z,19.20
2018-04-19T18:47:05.724Z,19.23
2018-04-19T18:49:34.237Z,19.16
2018-04-19T18:52:02.919Z,19.01
2018-04-19T18:54:31.503Z,18.97
2018-04-19T18:57:00.295Z,18.70
2018-04-19T18:59:29.123Z,18.54
2018-04-19T19:01:57.795Z,18.61
2018-04-19T19:04:26.506Z,18.34
2018-04-19T19:06:55.184Z,18.76
2018-04-19T19:09:23.817Z,18.75
2018-04-19T19:11:52.565Z,18.72
2018-04-19T19:14:21.178Z,18.79
2018-04-19T19:16:49.926Z,18.78
2018-04-19T19:20:27.551Z,18.84
2018-04-19T19:22:56.064Z,18.76
2018-04-19T19:25:27.656Z,18.76
2018-04-19T19:27:56.431Z,18.66
2018-04-19T19:30:25.053Z,18.57
2018-04-19T19:32:53.888Z,18.34
2018-04-19T19:35:22.642Z,18.29
2018-04-19T19:37:51.573Z,18.28
2018-04-19T19:40:20.136Z,18.18
2018-04-19T19:42:48.728Z,18.18
2018-04-19T19:45:17.329Z,18.02
2018-04-19T19:47:46.237Z,17.97
2018-04-19T19:50:14.817Z,17.95
2018-04-19T19:52:43.576Z,17.89
2018-04-19T19:55:12.124Z,17.83
2018-04-19T19:57:40.844Z,17.71
2018-04-19T20:00:09.387Z,17.53
2018-04-19T20:02:38.332Z,17.53
2018-04-19T20:05:06.945Z,17.46
2018-04-19T20:07:35.457Z,17.38
2018-04-19T20:10:04.179Z,17.30
2018-04-19T20:12:32.792Z,17.22
2018-04-19T20:15:01.260Z,17.04
2018-04-19T20:17:30.167Z,17.03
2018-04-19T20:19:59.083Z,17.04
2018-04-19T20:22:27.763Z,16.97
2018-04-19T20:24:56.256Z,16.87
2018-04-19T20:27:24.837Z,16.85
2018-04-19T20:29:53.436Z,16.76
2018-04-19T20:32:22.013Z,16.63
2018-04-19T20:34:50.972Z,16.52
2018-04-19T20:37:19.649Z,16.48
2018-04-19T20:39:48.357Z,16.67
2018-04-19T20:42:17.878Z,16.48
2018-04-19T20:44:46.556Z,16.52
2018-04-19T20:47:16.970Z,16.40
2018-04-19T20:49:46.178Z,16.42
2018-04-19T20:52:16.639Z,16.36
2018-04-19T20:54:45.526Z,16.29
2018-04-19T20:57:14.132Z,16.27
2018-04-19T20:59:42.619Z,16.19
2018-04-19T21:02:11.408Z,16.19
2018-04-19T21:04:40.016Z,16.14
2018-04-19T21:07:08.647Z,16.17
2018-04-19T21:09:37.190Z,16.05
2018-04-19T21:12:05.711Z,16.06
2018-04-19T21:14:34.243Z,15.96
2018-04-19T21:17:02.820Z,16.08
2018-04-19T21:19:33.612Z,16.03
2018-04-19T21:22:02.953Z,15.86
2018-04-19T21:24:31.631Z,15.92
2018-04-19T21:27:06.824Z,15.94
